Flight Track Log - Related Links

Times and Time Zones

All times are in EDT time to prevent confusion due to time zone crossing. See the SWA253 flight status page for this flight to view local times or setup timezone preferences in your user account.

Time Position Orientation Groundspeed Altitude Reporting Facility
EDT Latitude Longitude Course Direction KTS MPH feet Rate Location/Type
Thu 08:52:52 PM 39.1500 -76.6500 142° Southeast 159 183 1,300  Level Potomac TRACON
Thu 08:53:52 PM 39.1167 -76.6167 142° Southeast 208 239 3,000 2,250 Climbing Potomac TRACON
Thu 08:54:52 PM 39.0500 -76.5667 150° Southeast 234 269 5,800 3,050 Climbing Potomac TRACON
Thu 08:55:52 PM 39.0000 -76.5167 142° Southeast 248 285 9,100 2,800 Climbing Potomac TRACON
Thu 08:56:52 PM 38.9333 -76.4833 159° South 286 329 11,400 2,100 Climbing Potomac TRACON
Thu 08:57:52 PM 38.8500 -76.5500 212° Southwest 379 436 13,300 2,522 Climbing Potomac TRACON
Thu 08:59:10 PM 38.7128 -76.6319 205° Southwest 423 487 17,200 2,460 Climbing Washington Center
Thu 09:00:11 PM 38.6103 -76.6969 206° Southwest 423 487 19,000 908 Climbing Washington Center
Thu 09:01:09 PM 38.5203 -76.7222 192° South 423 487 19,000 756 Level Washington Center
Thu 09:02:10 PM 38.3911 -76.7069 175° South 413 475 20,500 1,918 Climbing Washington Center
Thu 09:03:11 PM 38.2683 -76.6839 172° South 427 491 22,900 2,218 Climbing Washington Center
Thu 09:04:09 PM 38.1414 -76.6689 175° South 450 518 24,900 1,916 Climbing Washington Center
Thu 09:05:10 PM 38.0100 -76.6511 174° South 465 535 26,700 1,686 Climbing Washington Center
Thu 09:06:10 PM 37.8744 -76.6572 182° South 478 550 28,300 1,623 Climbing Washington Center
Thu 09:07:12 PM 37.7367 -76.6736 185° South 489 563 30,000 857 Climbing Washington Center
Thu 09:08:09 PM 37.5989 -76.6900 185° South 501 577 30,000 102 Level Washington Center
Thu 09:09:10 PM 37.4589 -76.7089 186° South 501 577 30,200 992 Climbing Washington Center
Thu 09:10:10 PM 37.3125 -76.7617 196° South 501 577 32,000 1,835 Climbing Washington Center
Thu 09:11:11 PM 37.1844 -76.8172 199° South 501 577 33,900 1,983 Climbing Washington Center
Thu 09:12:11 PM 37.0589 -76.8722 199° South 496 571 36,000 1,729 Climbing Washington Center
Thu 09:13:09 PM 36.9394 -76.9222 199° South 478 550 37,300 966 Climbing Washington Center
Thu 09:14:09 PM 36.8158 -76.9747 199° South 466 536 37,900 344 Climbing Washington Center
Thu 09:15:11 PM 36.6919 -77.0269 199° South 466 536 38,000 49 Climbing Washington Center
Thu 09:16:11 PM 36.5661 -77.0764 198° South 466 536 38,000 51 Level Washington Center
Thu 09:17:09 PM 36.4425 -77.1283 199° South 471 542 38,100 403 Climbing Washington Center
Thu 09:18:10 PM 36.3186 -77.1800 199° South 471 542 38,800 645 Climbing Washington Center
Thu 09:19:10 PM 36.1928 -77.2314 198° South 471 542 39,400 605 Climbing Washington Center
Thu 09:20:09 PM 36.0836 -77.2756 198° South 461 531 40,000 295 Climbing Washington Center
Thu 09:21:12 PM 35.9578 -77.3214 196° South 466 536 40,000  Level Washington Center
Thu 09:22:09 PM 35.8400 -77.3831 203° Southwest 466 536 40,000  Level Washington Center
Thu 09:23:10 PM 35.7406 -77.4781 218° Southwest 455 524 40,000  Level Washington Center
Thu 09:24:10 PM 35.6389 -77.5703 216° Southwest 461 531 40,000  Level Washington Center
Thu 09:25:11 PM 35.5372 -77.6672 218° Southwest 461 531 40,000  Level Washington Center
Thu 09:26:11 PM 35.4353 -77.7589 216° Southwest 466 536 40,000  Level Washington Center
Thu 09:27:09 PM 35.3250 -77.8628 218° Southwest 466 536 40,000  Level Washington Center
Thu 09:28:10 PM 35.2250 -77.9567 217° Southwest 466 536 40,000  Level Washington Center
Thu 09:29:10 PM 35.1231 -78.0478 216° Southwest 466 536 40,000  Level Washington Center
Thu 09:30:53 PM 34.9489 -78.2075 217° Southwest 472 543 40,000  Level Jacksonville Center
Thu 09:31:53 PM 34.8500 -78.2964 216° Southwest 460 529 40,000  Level Jacksonville Center
Thu 09:32:53 PM 34.7733 -78.3711 219° Southwest 460 529 40,000  Level Jacksonville Center
Thu 09:33:53 PM 34.6522 -78.4811 217° Southwest 455 524 40,000  Level Jacksonville Center
Thu 09:34:53 PM 34.5531 -78.5694 216° Southwest 455 524 40,000  Level Jacksonville Center
Thu 09:35:53 PM 34.4561 -78.6647 219° Southwest 455 524 40,000  Level Jacksonville Center
Thu 09:36:53 PM 34.3567 -78.7525 216° Southwest 450 518 40,000  Level Jacksonville Center
Thu 09:37:53 PM 34.2556 -78.8428 216° Southwest 450 518 40,000  Level Jacksonville Center
Thu 09:38:53 PM 34.1428 -78.9083 206° Southwest 450 518 40,000  Level Jacksonville Center
Thu 09:39:53 PM 34.0281 -78.9786 207° Southwest 455 524 40,000  Level Jacksonville Center
Thu 09:40:53 PM 33.9175 -79.0436 206° Southwest 455 524 40,000  Level Jacksonville Center
Thu 09:41:53 PM 33.8008 -79.1164 207° Southwest 460 529 40,000  Level Jacksonville Center
Thu 09:42:53 PM 33.7128 -79.1700 207° Southwest 460 529 40,000  Level Jacksonville Center
Thu 09:43:53 PM 33.5956 -79.2372 206° Southwest 446 513 40,000  Level Jacksonville Center
Thu 09:44:53 PM 33.4847 -79.2992 205° Southwest 441 507 40,000  Level Jacksonville Center
Thu 09:45:53 PM 33.3717 -79.3633 205° Southwest 441 507 40,000  Level Jacksonville Center
Thu 09:46:53 PM 33.2631 -79.4272 206° Southwest 441 507 40,000  Level Jacksonville Center
Thu 09:47:53 PM 33.1500 -79.4911 205° Southwest 441 507 40,000  Level Jacksonville Center
Thu 09:48:53 PM 33.0347 -79.5550 205° Southwest 441 507 40,000  Level Jacksonville Center
Thu 09:49:53 PM 32.9194 -79.6186 205° Southwest 446 513 40,000  Level Jacksonville Center
Thu 09:50:53 PM 32.8044 -79.6847 206° Southwest 452 520 40,000 -400 Level Jacksonville Center
Thu 09:51:53 PM 32.6889 -79.7481 205° Southwest 459 528 39,200 -900 Descending Jacksonville Center
Thu 09:52:53 PM 32.5739 -79.8161 207° Southwest 459 528 38,200 -950 Descending Jacksonville Center
Thu 09:53:53 PM 32.4653 -79.9033 214° Southwest 459 528 37,300 -950 Descending Jacksonville Center
Thu 09:54:53 PM 32.3567 -79.9881 213° Southwest 469 540 36,300 -950 Descending Jacksonville Center
Thu 09:55:53 PM 32.2478 -80.0703 213° Southwest 474 545 35,400 -950 Descending Jacksonville Center
Thu 09:56:53 PM 32.1392 -80.1569 214° Southwest 474 545 34,400 -950 Descending Jacksonville Center
Thu 09:57:53 PM 32.0347 -80.2533 218° Southwest 480 552 33,500 -1,050 Descending Jacksonville Center
Thu 09:58:53 PM 31.9300 -80.3467 217° Southwest 485 558 32,300 -1,900 Descending Jacksonville Center
Thu 09:59:53 PM 31.8233 -80.4450 218° Southwest 465 535 29,700 -2,400 Descending Jacksonville Center
Thu 10:00:53 PM 31.7269 -80.5306 217° Southwest 444 511 27,500 -2,150 Descending Jacksonville Center
Thu 10:01:53 PM 31.6325 -80.6161 218° Southwest 432 497 25,400 -2,200 Descending Jacksonville Center
Thu 10:02:53 PM 31.5378 -80.6939 215° Southwest 421 484 23,100 -2,150 Descending Jacksonville Center
Thu 10:03:53 PM 31.4536 -80.7761 220° Southwest 403 464 21,100 -1,950 Descending Jacksonville Center
Thu 10:04:53 PM 31.3714 -80.8486 217° Southwest 392 451 19,200 -2,000 Descending Jacksonville Center
Thu 10:05:53 PM 31.2869 -80.9258 218° Southwest 386 444 17,100 -2,050 Descending Jacksonville Center
Thu 10:06:53 PM 31.2067 -80.9981 218° Southwest 377 434 15,100 -2,000 Descending Jacksonville Center
Thu 10:07:53 PM 31.1303 -81.0700 219° Southwest 362 417 13,100 -1,950 Descending Jacksonville Center
Thu 10:08:53 PM 31.0519 -81.1369 216° Southwest 357 411 11,200 -1,600 Descending Jacksonville Center
Thu 10:09:53 PM 30.9756 -81.2014 216° Southwest 357 411 9,900 -692 Descending Jacksonville Center
Thu 10:10:37 PM 30.9261 -81.2483 219° Southwest 328 377 10,000 74 Climbing Jacksonville Center
Thu 10:11:14 PM 30.8786 -81.2878 215° Southwest 328 377 10,000 -474 Level Jacksonville Center
Thu 10:11:53 PM 30.8372 -81.3272 219° Southwest 335 386 9,400 -1,273 Descending Jacksonville Center
Thu 10:12:53 PM 30.7817 -81.3764 217° Southwest 307 353 7,900 -1,700 Descending Jacksonville Center
Thu 10:13:53 PM 30.7236 -81.4256 216° Southwest 291 335 6,000 -1,850 Descending Jacksonville Center
Thu 10:14:53 PM 30.6597 -81.4822 217° Southwest 285 328 4,200 -1,750 Descending Jacksonville Center
Thu 10:15:53 PM 30.6039 -81.5314 217° Southwest 267 307 2,500 -1,467 Descending Jacksonville Center
Thu 10:16:23 PM 30.5706 -81.5583 215° Southwest 239 275 2,000 -600 Descending Jacksonville Center
Thu 10:16:53 PM 30.5542 -81.5756 222° Southwest 253 291 1,900 -393 Descending Jacksonville Center
Thu 10:17:24 PM 30.5356 -81.5925 218° Southwest 138 159 1,600 -791 Descending Jacksonville Center
Thu 10:18:24 PM 30.5172 -81.6314 241° Southwest 129 148 700 -744 Descending Jacksonville Center
Thu 10:19:25 PM 30.5069 -81.6703 253° West 139 160 100 3,745 Descending Jacksonville Center
Thu 10:20:53 PM 30.4947 -81.6944 240° Southwest 83 96 10,000 4,014 Climbing Jacksonville Center
Thu 10:21:53 PM 30.4864 -81.7089 236° Southwest 69 79 10,000  Level Jacksonville Center
Thu 10:22:53 PM 30.4844 -81.7017 107° East 69 79 10,000  Level Jacksonville Center
Thu 10:24:00 PM 30.4833 -81.6833 90° East  Level FlightAware Approximate
Thu 10:31:00 PM 30.4941 -81.6879 90° East  Level Estimated
Thu 10:32:00 PM 30.4941 -81.6879 90° East  Level Estimated
Thu 10:33:00 PM 30.4941 -81.6879 90° East  Level Estimated
Thu 10:34:00 PM 30.4941 -81.6879 90° East  Level Estimated
Thu 10:35:00 PM 30.4941 -81.6879 90° East  Level Estimated
Thu 10:36:00 PM 30.4941 -81.6879 90° East  Level Estimated
Thu 10:37:00 PM 30.4941 -81.6879 90° East  Level Estimated
Thu 10:38:00 PM 30.4941 -81.6879 90° East  Level Estimated

Login

Don't have an account? Register now (free) for customized features, flight alerts, and more!